createdAt,value
2023-04-06T00:00:39.044Z,32.73
2023-04-06T00:03:17.695Z,33.31
2023-04-06T00:05:46.244Z,33.47
2023-04-06T00:08:13.880Z,33.46
2023-04-06T00:10:41.982Z,33.65
2023-04-06T00:13:09.715Z,33.78
2023-04-06T00:15:37.750Z,34.33
2023-04-06T00:18:05.590Z,34.68
2023-04-06T00:20:33.814Z,35.00
2023-04-06T00:23:01.738Z,35.51
2023-04-06T00:25:29.894Z,36.66
2023-04-06T00:27:57.660Z,36.74
2023-04-06T00:30:25.829Z,36.52
2023-04-06T00:32:53.680Z,37.64
2023-04-06T00:35:21.765Z,37.70
2023-04-06T00:37:49.564Z,37.71
2023-04-06T00:40:17.805Z,37.25
2023-04-06T00:42:46.644Z,36.39
2023-04-06T00:45:15.244Z,36.05
2023-04-06T00:47:43.362Z,36.23
2023-04-06T00:50:11.884Z,36.81
2023-04-06T00:52:39.825Z,37.12
2023-04-06T00:55:10.657Z,37.33
2023-04-06T00:57:43.163Z,37.08
2023-04-06T01:00:13.250Z,37.36
2023-04-06T01:02:41.463Z,37.44
2023-04-06T01:05:11.738Z,37.94
2023-04-06T01:07:59.692Z,38.38
2023-04-06T01:10:31.107Z,38.62
2023-04-06T01:13:06.017Z,39.05
2023-04-06T01:15:48.779Z,38.55
2023-04-06T01:18:27.532Z,37.70
2023-04-06T01:21:04.431Z,37.71
2023-04-06T01:23:32.133Z,37.46
2023-04-06T01:26:00.579Z,38.08
2023-04-06T01:28:30.105Z,37.87
2023-04-06T01:31:23.652Z,37.03
2023-04-06T01:33:53.869Z,36.94
2023-04-06T01:36:24.942Z,37.19
2023-04-06T01:39:15.883Z,37.17
2023-04-06T01:41:44.367Z,36.82
2023-04-06T01:44:12.678Z,37.21
2023-04-06T01:46:42.466Z,36.94
2023-04-06T01:49:12.027Z,37.32
2023-04-06T01:51:42.763Z,37.04
2023-04-06T01:54:13.836Z,37.33
2023-04-06T01:57:17.265Z,37.43
2023-04-06T01:59:53.606Z,37.72
2023-04-06T02:02:41.488Z,38.12
2023-04-06T02:05:16.391Z,37.88
2023-04-06T02:07:45.576Z,38.48
2023-04-06T02:10:16.851Z,38.45
2023-04-06T02:12:46.139Z,38.32
2023-04-06T02:15:20.462Z,38.61
2023-04-06T02:17:49.379Z,38.66
2023-04-06T02:20:17.213Z,38.08
2023-04-06T02:22:45.385Z,37.85
2023-04-06T02:25:13.127Z,38.13
2023-04-06T02:27:41.212Z,38.27
2023-04-06T02:30:09.102Z,37.97
2023-04-06T02:32:37.678Z,38.41
2023-04-06T02:35:06.180Z,39.04
2023-04-06T02:37:35.926Z,39.58
2023-04-06T02:40:03.768Z,39.13
2023-04-06T02:42:34.068Z,39.50
2023-04-06T02:45:02.150Z,39.58
2023-04-06T02:47:35.157Z,39.79
2023-04-06T02:50:03.048Z,40.03
2023-04-06T02:52:33.295Z,40.31
2023-04-06T02:55:01.956Z,40.64
2023-04-06T02:57:32.417Z,40.23
2023-04-06T03:00:00.306Z,40.27
2023-04-06T03:02:36.983Z,40.06
2023-04-06T03:05:10.029Z,40.06
2023-04-06T03:07:42.927Z,40.27
2023-04-06T03:10:16.449Z,40.53
2023-04-06T03:12:46.817Z,39.81
2023-04-06T03:15:37.155Z,40.03
2023-04-06T03:18:14.727Z,40.59
2023-04-06T03:20:48.658Z,40.64
2023-04-06T03:23:18.345Z,40.75
2023-04-06T03:25:47.214Z,40.41
2023-04-06T03:28:19.016Z,39.96
2023-04-06T03:30:54.665Z,39.84
2023-04-06T03:33:38.596Z,39.39
2023-04-06T03:36:08.013Z,39.39
2023-04-06T03:38:41.432Z,40.14
2023-04-06T03:41:14.881Z,40.15
2023-04-06T03:43:48.955Z,39.66
2023-04-06T03:46:16.749Z,40.18
2023-04-06T03:48:44.955Z,39.30
2023-04-06T03:51:12.738Z,39.24
2023-04-06T03:53:40.953Z,39.43
2023-04-06T03:56:08.693Z,39.86
2023-04-06T03:58:36.812Z,39.50
2023-04-06T04:01:04.636Z,38.98
2023-04-06T04:03:32.895Z,39.35
2023-04-06T04:06:00.871Z,39.94
2023-04-06T04:08:29.139Z,39.83
2023-04-06T04:10:56.984Z,39.80
2023-04-06T04:13:25.719Z,39.50
2023-04-06T04:15:54.183Z,39.21
2023-04-06T04:18:22.332Z,39.77
2023-04-06T04:20:50.172Z,39.73
2023-04-06T04:23:22.239Z,40.77
2023-04-06T04:25:49.985Z,40.24
2023-04-06T04:28:18.216Z,40.49
2023-04-06T04:30:47.439Z,40.35
2023-04-06T04:33:16.654Z,40.83
2023-04-06T04:35:45.599Z,40.85
2023-04-06T04:38:17.635Z,40.99
2023-04-06T04:40:50.816Z,41.43
2023-04-06T04:43:19.269Z,41.36
2023-04-06T04:45:47.892Z,41.44
2023-04-06T04:48:35.521Z,41.54
2023-04-06T04:51:05.752Z,41.43
2023-04-06T04:53:54.141Z,41.85
2023-04-06T04:56:26.482Z,41.37
2023-04-06T04:59:00.608Z,40.92
2023-04-06T05:01:40.715Z,41.44
2023-04-06T05:04:16.680Z,40.59
2023-04-06T05:06:44.593Z,40.54
2023-04-06T05:09:13.064Z,41.31
2023-04-06T05:11:43.416Z,41.43
2023-04-06T05:14:12.222Z,41.33
2023-04-06T05:16:39.945Z,41.15
2023-04-06T05:19:08.830Z,41.27
2023-04-06T05:21:42.864Z,41.33
2023-04-06T05:24:11.507Z,41.29
2023-04-06T05:26:41.939Z,40.91
2023-04-06T05:29:18.475Z,40.79
2023-04-06T05:31:47.324Z,41.12
2023-04-06T05:34:15.826Z,40.56
2023-04-06T05:36:43.751Z,40.94
2023-04-06T05:39:25.061Z,40.47
2023-04-06T05:41:54.629Z,40.64
2023-04-06T05:44:33.618Z,39.96
2023-04-06T05:47:07.841Z,40.05
2023-04-06T05:49:37.336Z,39.14
2023-04-06T05:52:09.917Z,39.35
2023-04-06T05:54:38.382Z,39.01
2023-04-06T05:57:06.227Z,39.48
2023-04-06T05:59:34.910Z,38.75
2023-04-06T06:02:03.309Z,38.65
2023-04-06T06:04:34.824Z,38.71
2023-04-06T06:07:03.675Z,38.47
2023-04-06T06:09:40.242Z,38.52
2023-04-06T06:12:29.231Z,37.63
2023-04-06T06:14:57.949Z,37.97
2023-04-06T06:17:27.941Z,37.88
2023-04-06T06:19:56.693Z,37.32
2023-04-06T06:22:24.418Z,36.76
2023-04-06T06:24:52.644Z,35.82
2023-04-06T06:27:21.986Z,35.23
2023-04-06T06:29:50.325Z,34.69
2023-04-06T06:32:19.421Z,35.29
2023-04-06T06:34:51.395Z,35.26
2023-04-06T06:37:20.174Z,35.10
2023-04-06T06:39:50.041Z,35.59
2023-04-06T06:42:19.227Z,35.31
2023-04-06T06:45:08.353Z,34.10
2023-04-06T06:47:36.189Z,33.99
2023-04-06T06:50:04.466Z,34.47
2023-04-06T06:52:32.506Z,33.82
2023-04-06T06:55:01.798Z,33.09
2023-04-06T06:57:29.634Z,32.82
2023-04-06T06:59:58.578Z,31.78
2023-04-06T07:02:26.517Z,31.76
2023-04-06T07:04:54.743Z,32.14
2023-04-06T07:07:22.957Z,31.34
2023-04-06T07:09:51.561Z,31.60
2023-04-06T07:12:19.383Z,32.26
2023-04-06T07:14:47.508Z,31.25
2023-04-06T07:17:15.292Z,31.80
2023-04-06T07:19:44.023Z,31.42
2023-04-06T07:22:11.836Z,31.24
2023-04-06T07:24:39.937Z,31.18
2023-04-06T07:27:08.513Z,30.90
2023-04-06T07:29:36.576Z,31.19
2023-04-06T07:32:04.589Z,31.74
2023-04-06T07:34:34.451Z,31.00
2023-04-06T07:37:04.322Z,30.38
2023-04-06T07:39:33.276Z,30.44
2023-04-06T07:42:02.332Z,30.35
2023-04-06T07:44:30.591Z,30.20
2023-04-06T07:46:58.442Z,29.51
2023-04-06T07:49:28.001Z,30.34
2023-04-06T07:51:57.361Z,29.67
2023-04-06T07:54:26.584Z,28.46
2023-04-06T07:56:54.412Z,30.06
2023-04-06T07:59:22.577Z,31.36
2023-04-06T08:01:50.331Z,30.71
2023-04-06T08:04:18.771Z,31.18
2023-04-06T08:06:46.580Z,30.20
2023-04-06T08:09:14.681Z,29.26
2023-04-06T08:11:42.438Z,28.66
2023-04-06T08:14:10.652Z,27.96
2023-04-06T08:16:38.702Z,27.77
2023-04-06T08:19:08.651Z,27.70
2023-04-06T08:21:36.899Z,27.97
2023-04-06T08:24:05.311Z,27.70
2023-04-06T08:26:32.979Z,27.45
2023-04-06T08:29:01.282Z,27.74
2023-04-06T08:31:29.094Z,28.91
2023-04-06T08:33:57.609Z,29.31
2023-04-06T08:36:25.662Z,29.46
2023-04-06T08:38:55.029Z,30.71
2023-04-06T08:41:22.748Z,30.44
2023-04-06T08:43:57.801Z,29.65
2023-04-06T08:46:31.133Z,29.32
2023-04-06T08:49:00.569Z,29.37
2023-04-06T08:51:29.041Z,29.08
2023-04-06T08:53:58.598Z,28.45
2023-04-06T08:56:29.276Z,27.99
2023-04-06T08:58:57.751Z,28.62
2023-04-06T09:01:29.337Z,28.37
2023-04-06T09:04:06.691Z,29.72
2023-04-06T09:06:38.247Z,28.43
2023-04-06T09:09:06.611Z,27.65
2023-04-06T09:11:47.982Z,28.81
2023-04-06T09:14:16.710Z,28.66
2023-04-06T09:16:46.296Z,28.38
2023-04-06T09:19:14.490Z,29.35
2023-04-06T09:21:42.411Z,28.94
2023-04-06T09:24:11.437Z,27.70
2023-04-06T09:26:47.378Z,27.42
2023-04-06T09:29:27.261Z,27.79
2023-04-06T09:32:03.289Z,28.04
2023-04-06T09:34:32.054Z,27.25
2023-04-06T09:36:59.872Z,26.95
2023-04-06T09:39:27.999Z,25.54
2023-04-06T09:41:56.972Z,26.10
2023-04-06T09:44:25.669Z,26.98
2023-04-06T09:47:00.466Z,26.75
2023-04-06T09:49:31.584Z,25.92
2023-04-06T09:52:09.773Z,25.09
2023-04-06T09:54:39.137Z,24.23
2023-04-06T09:57:18.568Z,25.49
2023-04-06T10:00:12.556Z,25.71
2023-04-06T10:02:59.454Z,25.61
2023-04-06T10:05:44.965Z,25.13
2023-04-06T10:08:13.216Z,24.77
2023-04-06T10:10:41.330Z,24.86
2023-04-06T10:13:11.496Z,25.55
2023-04-06T10:15:40.074Z,25.43
2023-04-06T10:18:08.826Z,24.93
2023-04-06T10:20:52.408Z,25.02
2023-04-06T10:23:34.475Z,24.02
2023-04-06T10:26:02.944Z,23.29
2023-04-06T10:28:35.646Z,24.83
2023-04-06T10:31:07.312Z,24.66
2023-04-06T10:33:35.508Z,24.12
2023-04-06T10:36:13.372Z,25.03
2023-04-06T10:38:42.227Z,25.04
2023-04-06T10:41:13.920Z,23.64
2023-04-06T10:43:42.619Z,23.44
2023-04-06T10:46:11.757Z,24.50
2023-04-06T10:48:40.272Z,23.92
2023-04-06T10:51:09.518Z,24.34
2023-04-06T10:53:37.292Z,23.99
2023-04-06T10:56:12.229Z,24.09
2023-04-06T10:58:45.381Z,25.18
2023-04-06T11:01:14.008Z,25.31
2023-04-06T11:03:48.977Z,24.52
2023-04-06T11:06:24.476Z,24.58
2023-04-06T11:08:52.785Z,24.63
2023-04-06T11:11:22.293Z,24.06
2023-04-06T11:13:51.746Z,23.70
2023-04-06T11:16:21.634Z,23.19
2023-04-06T11:18:55.524Z,23.33
2023-04-06T11:21:38.154Z,24.20
2023-04-06T11:24:11.966Z,24.01
2023-04-06T11:26:41.571Z,24.07
2023-04-06T11:29:09.525Z,22.49
2023-04-06T11:31:41.659Z,22.78
2023-04-06T11:34:29.180Z,24.05
2023-04-06T11:37:01.556Z,24.48
2023-04-06T11:39:29.962Z,22.64
2023-04-06T11:42:05.573Z,23.52
2023-04-06T11:44:34.923Z,23.04
2023-04-06T11:47:04.134Z,23.55
2023-04-06T11:49:32.556Z,24.23
2023-04-06T11:52:03.292Z,24.44
2023-04-06T11:54:32.064Z,23.81
2023-04-06T11:57:00.314Z,23.99
2023-04-06T11:59:28.453Z,21.77
2023-04-06T12:01:57.554Z,21.21
2023-04-06T12:04:25.755Z,20.97
2023-04-06T12:06:54.076Z,21.78
2023-04-06T12:09:22.198Z,23.22
2023-04-06T12:11:50.424Z,24.02
2023-04-06T12:14:18.241Z,22.55
2023-04-06T12:16:46.443Z,22.49
2023-04-06T12:19:14.206Z,23.33
2023-04-06T12:21:42.297Z,23.58
2023-04-06T12:24:10.058Z,24.32
2023-04-06T12:26:38.505Z,23.99
2023-04-06T12:29:08.427Z,22.80
2023-04-06T12:31:37.444Z,24.19
2023-04-06T12:34:05.284Z,24.05
2023-04-06T12:36:33.469Z,24.77
2023-04-06T12:39:04.399Z,23.40
2023-04-06T12:41:32.440Z,24.56
2023-04-06T12:44:01.121Z,24.05
2023-04-06T12:46:31.909Z,24.29
2023-04-06T12:49:00.399Z,23.60
2023-04-06T12:51:32.676Z,24.13
2023-04-06T12:54:00.478Z,23.23
2023-04-06T12:56:28.998Z,23.20
2023-04-06T12:58:56.989Z,22.96
2023-04-06T13:01:26.758Z,23.34
2023-04-06T13:03:54.728Z,23.02
2023-04-06T13:06:22.966Z,23.91
2023-04-06T13:08:51.424Z,23.91
2023-04-06T13:11:21.776Z,23.85
2023-04-06T13:13:49.557Z,24.04
2023-04-06T13:16:17.817Z,22.95
2023-04-06T13:18:45.882Z,23.03
2023-04-06T13:21:17.815Z,22.46
2023-04-06T13:23:45.711Z,23.39
2023-04-06T13:26:14.893Z,22.82
2023-04-06T13:28:42.905Z,22.85
2023-04-06T13:31:11.242Z,23.18
2023-04-06T13:33:39.737Z,22.59
2023-04-06T13:36:08.826Z,23.21
2023-04-06T13:38:36.615Z,22.43
2023-04-06T13:41:04.722Z,22.01
2023-04-06T13:43:32.460Z,22.45
2023-04-06T13:46:02.569Z,21.76
2023-04-06T13:48:30.813Z,21.54
2023-04-06T13:50:58.991Z,20.95
2023-04-06T13:53:29.031Z,22.25
2023-04-06T13:55:57.228Z,22.59
2023-04-06T13:58:25.368Z,22.83
2023-04-06T14:00:54.090Z,24.00
2023-04-06T14:03:22.750Z,22.23
2023-04-06T14:05:51.389Z,22.16
2023-04-06T14:08:19.081Z,21.68
2023-04-06T14:10:47.279Z,21.53
2023-04-06T14:13:15.016Z,22.03
2023-04-06T14:15:43.086Z,22.90
2023-04-06T14:18:10.887Z,23.85
2023-04-06T14:20:39.027Z,23.31
2023-04-06T14:23:06.870Z,23.07
2023-04-06T14:25:36.025Z,22.42
2023-04-06T14:28:03.929Z,23.29
2023-04-06T14:30:32.395Z,23.17
2023-04-06T14:33:00.200Z,23.69
2023-04-06T14:35:29.580Z,24.06
2023-04-06T14:37:59.217Z,23.10
2023-04-06T14:40:27.421Z,23.71
2023-04-06T14:42:56.926Z,23.72
2023-04-06T14:45:24.992Z,23.12
2023-04-06T14:47:52.798Z,23.28
2023-04-06T14:50:20.941Z,23.43
2023-04-06T14:52:48.614Z,22.65
2023-04-06T14:55:16.930Z,22.12
2023-04-06T14:57:44.642Z,22.73
2023-04-06T15:00:13.322Z,22.56
2023-04-06T15:02:41.608Z,22.11
2023-04-06T15:05:09.930Z,22.14
2023-04-06T15:07:37.652Z,23.05
2023-04-06T15:10:06.769Z,22.61
2023-04-06T15:12:36.659Z,22.62
2023-04-06T15:15:06.510Z,22.38
2023-04-06T15:17:34.255Z,23.41
2023-04-06T15:20:02.518Z,23.64
2023-04-06T15:22:30.139Z,24.21
2023-04-06T15:24:58.199Z,22.93
2023-04-06T15:27:26.406Z,22.64
2023-04-06T15:29:54.987Z,22.87
2023-04-06T15:32:22.919Z,23.71
2023-04-06T15:34:50.836Z,22.19
2023-04-06T15:37:18.483Z,22.32
2023-04-06T15:39:46.448Z,22.96
2023-04-06T15:42:14.068Z,23.35
2023-04-06T15:44:42.755Z,23.66
2023-04-06T15:47:10.502Z,23.75
2023-04-06T15:49:38.569Z,23.54
2023-04-06T15:52:06.240Z,23.13
2023-04-06T15:54:34.311Z,22.58
2023-04-06T15:57:02.486Z,23.62
2023-04-06T15:59:30.490Z,23.89
2023-04-06T16:02:00.112Z,24.03
2023-04-06T16:04:28.416Z,24.58
2023-04-06T16:06:56.220Z,23.59
2023-04-06T16:09:24.520Z,22.99
2023-04-06T16:11:52.252Z,23.96
2023-04-06T16:14:20.213Z,24.34
2023-04-06T16:16:47.988Z,24.42
2023-04-06T16:19:16.356Z,24.45
2023-04-06T16:21:43.961Z,24.50
2023-04-06T16:24:12.591Z,23.94
2023-04-06T16:26:40.336Z,23.44
2023-04-06T16:29:10.604Z,23.71
2023-04-06T16:31:38.397Z,24.45
2023-04-06T16:34:06.734Z,24.33
2023-04-06T16:36:34.474Z,24.37
2023-04-06T16:39:02.606Z,25.06
2023-04-06T16:41:30.333Z,24.50
2023-04-06T16:43:58.423Z,24.46
2023-04-06T16:46:30.357Z,25.13
2023-04-06T16:48:59.455Z,24.69
2023-04-06T16:51:27.513Z,24.66
2023-04-06T16:53:56.040Z,25.53
2023-04-06T16:56:23.929Z,25.93
2023-04-06T16:58:52.289Z,26.27
2023-04-06T17:01:21.016Z,26.33
2023-04-06T17:03:49.489Z,25.87
2023-04-06T17:06:17.583Z,26.02
2023-04-06T17:08:47.256Z,26.13
2023-04-06T17:11:18.704Z,26.50
2023-04-06T17:13:49.459Z,25.91
2023-04-06T17:16:18.621Z,26.53
2023-04-06T17:18:46.880Z,26.13
2023-04-06T17:21:14.830Z,26.02
2023-04-06T17:23:44.408Z,26.30
2023-04-06T17:26:12.760Z,26.82
2023-04-06T17:28:41.494Z,26.74
2023-04-06T17:31:10.566Z,26.41
2023-04-06T17:33:39.598Z,26.27
2023-04-06T17:36:12.317Z,26.80
2023-04-06T17:38:44.355Z,26.95
2023-04-06T17:41:12.834Z,27.40
2023-04-06T17:43:41.045Z,27.16
2023-04-06T17:46:09.034Z,27.28
2023-04-06T17:48:37.481Z,27.34
2023-04-06T17:51:05.228Z,27.42
2023-04-06T17:53:34.723Z,27.45
2023-04-06T17:56:04.002Z,27.20
2023-04-06T17:58:32.438Z,27.05
2023-04-06T18:01:00.310Z,27.02
2023-04-06T18:03:28.667Z,27.21
2023-04-06T18:05:57.679Z,26.83
2023-04-06T18:08:25.738Z,26.91
2023-04-06T18:10:53.457Z,27.05
2023-04-06T18:13:22.709Z,27.53
2023-04-06T18:15:50.854Z,27.62
2023-04-06T18:18:19.211Z,27.40
2023-04-06T18:20:47.191Z,27.58
2023-04-06T18:23:15.157Z,27.35
2023-04-06T18:25:42.954Z,27.39
2023-04-06T18:28:28.262Z,27.67
2023-04-06T18:30:56.671Z,27.91
2023-04-06T18:33:24.571Z,28.40
2023-04-06T18:35:52.728Z,28.23
2023-04-06T18:38:20.709Z,28.24
2023-04-06T18:40:49.637Z,28.92
2023-04-06T18:43:17.523Z,28.76
2023-04-06T18:45:45.621Z,28.84
2023-04-06T18:48:14.555Z,28.63
2023-04-06T18:50:52.224Z,29.07
2023-04-06T18:53:20.172Z,28.84
2023-04-06T18:55:48.386Z,28.83
2023-04-06T18:58:16.205Z,29.01
2023-04-06T19:00:44.188Z,28.63
2023-04-06T19:03:12.240Z,29.59
2023-04-06T19:05:41.055Z,29.30
2023-04-06T19:08:09.045Z,29.41
2023-04-06T19:10:37.653Z,29.36
2023-04-06T19:13:05.725Z,29.36
2023-04-06T19:15:34.110Z,29.20
2023-04-06T19:18:01.843Z,28.81
2023-04-06T19:20:29.996Z,29.35
2023-04-06T19:22:58.195Z,29.03
2023-04-06T19:25:26.557Z,29.18
2023-04-06T19:27:54.736Z,28.98
2023-04-06T19:30:24.364Z,29.28
2023-04-06T19:32:51.998Z,29.36
2023-04-06T19:35:20.188Z,29.22
2023-04-06T19:37:47.844Z,29.43
2023-04-06T19:40:15.735Z,29.33
2023-04-06T19:42:43.527Z,29.46
2023-04-06T19:45:11.539Z,29.31
2023-04-06T19:47:39.150Z,29.43
2023-04-06T19:50:07.706Z,29.69
2023-04-06T19:52:35.932Z,29.48
2023-04-06T19:55:04.287Z,30.18
2023-04-06T19:57:31.828Z,29.73
2023-04-06T19:59:59.668Z,29.91
2023-04-06T20:02:27.386Z,30.08
2023-04-06T20:04:55.646Z,30.20
2023-04-06T20:07:23.157Z,30.40
2023-04-06T20:09:51.088Z,30.42
2023-04-06T20:12:18.626Z,30.41
2023-04-06T20:14:46.553Z,30.70
2023-04-06T20:17:14.181Z,30.71
2023-04-06T20:19:42.058Z,30.78
2023-04-06T20:22:09.879Z,30.52
2023-04-06T20:24:37.740Z,30.73
2023-04-06T20:27:05.447Z,30.54
2023-04-06T20:29:33.327Z,30.79
2023-04-06T20:32:01.818Z,31.09
2023-04-06T20:34:30.172Z,31.37
2023-04-06T20:36:58.751Z,31.41
2023-04-06T20:39:31.000Z,31.81
2023-04-06T20:41:58.940Z,32.14
2023-04-06T20:44:28.609Z,31.87
2023-04-06T20:46:56.377Z,32.42
2023-04-06T20:49:24.404Z,31.99
2023-04-06T20:51:52.056Z,32.41
2023-04-06T20:54:20.137Z,32.34
2023-04-06T20:56:47.872Z,32.98
2023-04-06T20:59:15.786Z,32.82
2023-04-06T21:01:43.618Z,32.66
2023-04-06T21:04:11.667Z,32.24
2023-04-06T21:06:39.279Z,33.03
2023-04-06T21:09:07.157Z,33.16
2023-04-06T21:11:34.708Z,33.19
2023-04-06T21:14:02.614Z,33.50
2023-04-06T21:16:30.158Z,33.38
2023-04-06T21:18:58.257Z,33.26
2023-04-06T21:21:25.771Z,33.39
2023-04-06T21:23:54.228Z,33.52
2023-04-06T21:26:21.964Z,33.89
2023-04-06T21:28:49.932Z,33.55
2023-04-06T21:31:20.086Z,33.54
2023-04-06T21:33:48.992Z,34.07
2023-04-06T21:36:16.697Z,33.98
2023-04-06T21:38:45.116Z,34.34
2023-04-06T21:41:12.648Z,34.36
2023-04-06T21:43:40.555Z,34.60
2023-04-06T21:46:08.457Z,34.41
2023-04-06T21:48:36.388Z,34.49
2023-04-06T21:51:03.993Z,34.70
2023-04-06T21:53:31.860Z,34.56
2023-04-06T21:56:01.108Z,34.75
2023-04-06T21:58:29.083Z,35.33
2023-04-06T22:00:56.830Z,35.92
2023-04-06T22:03:24.857Z,35.78
2023-04-06T22:05:52.603Z,35.05
2023-04-06T22:08:32.710Z,35.29
2023-04-06T22:11:07.140Z,35.42
2023-04-06T22:13:35.119Z,35.79
2023-04-06T22:16:03.079Z,35.70
2023-04-06T22:18:32.276Z,35.83
2023-04-06T22:21:00.199Z,35.89
2023-04-06T22:23:28.120Z,36.38
2023-04-06T22:25:58.361Z,36.16
2023-04-06T22:28:26.528Z,36.14
2023-04-06T22:30:53.998Z,35.96
2023-04-06T22:33:23.911Z,36.30
2023-04-06T22:35:51.451Z,36.33
2023-04-06T22:38:19.725Z,36.89
2023-04-06T22:40:47.283Z,37.02
2023-04-06T22:43:15.253Z,36.96
2023-04-06T22:45:42.872Z,37.29
2023-04-06T22:48:10.723Z,37.25
2023-04-06T22:50:38.305Z,36.87
2023-04-06T22:53:06.302Z,36.50
2023-04-06T22:55:33.841Z,37.12
2023-04-06T22:58:01.746Z,37.23
2023-04-06T23:00:29.345Z,37.15
2023-04-06T23:02:57.869Z,37.28
2023-04-06T23:05:25.821Z,36.96
2023-04-06T23:07:53.821Z,36.24
2023-04-06T23:10:21.393Z,36.57
2023-04-06T23:12:49.330Z,37.28
2023-04-06T23:15:17.122Z,37.28
2023-04-06T23:17:45.135Z,37.30
2023-04-06T23:20:12.726Z,37.04
2023-04-06T23:22:40.664Z,36.60
2023-04-06T23:25:08.826Z,36.72
2023-04-06T23:27:37.205Z,36.67
2023-04-06T23:30:05.053Z,36.48
2023-04-06T23:32:33.061Z,36.65
2023-04-06T23:35:00.577Z,36.57
2023-04-06T23:37:28.475Z,36.93
2023-04-06T23:39:56.212Z,37.12
2023-04-06T23:42:28.894Z,36.88
2023-04-06T23:44:56.820Z,37.35
2023-04-06T23:47:24.773Z,37.06
2023-04-06T23:49:52.390Z,37.04
2023-04-06T23:52:20.622Z,37.50
2023-04-06T23:54:48.092Z,36.94
2023-04-06T23:57:16.003Z,37.02
2023-04-06T23:59:43.588Z,37.47
